Wilson Gaeta — 8PTS — position and weather

sailwx.info

Track history (hours):
 
Tides and Currents Weather Stations Pressure Air Temp Water Temp Dewpoint Dewpoint Depression Visibility Wind Speed Wind Dir Waves Ship Positions

Wilson Gaeta

Last reported at 2016-Feb-12 15:34 UTC. Time now 2016-Feb-13 08:55 UTC.
Position N 49°25' W 003°56'.

Length 88 m; draft 5.6 m.

Type: Cargo ship. MMSI: 314237000.

Date/timePositionNaut miles runAvg speedWind from/ knotsBaromVisibWave heightAir tempDewpointWater temp
2016-Feb-12 15:34N 49°25' W 003°56'8 7.8
2016-Feb-12 14:34N 49°21' W 004°07'  
2016-Feb-06 09:32N 43°35' W 001°58'1110.9
2016-Feb-06 08:33N 43°33' W 001°43'10 9.7
2016-Feb-06 07:33N 43°32' W 001°30'0 0.0
2016-Feb-06 06:33N 43°32' W 001°30'0 0.0
2016-Feb-06 05:33N 43°32' W 001°30'0 0.0
2016-Feb-06 04:33N 43°32' W 001°30'0 0.0
2016-Feb-06 03:33N 43°32' W 001°30'0 0.0
2016-Feb-06 02:33N 43°32' W 001°30'0 0.0
2016-Feb-06 01:33N 43°32' W 001°30'0 0.0
2016-Feb-06 00:33N 43°32' W 001°30'0 0.0
2016-Feb-05 23:33N 43°32' W 001°30'0 0.0
2016-Feb-05 22:33N 43°32' W 001°30'0 0.0
2016-Feb-05 21:33N 43°32' W 001°30'0 0.0
2016-Feb-05 20:33N 43°32' W 001°30'0 0.0
2016-Feb-05 19:33N 43°32' W 001°30'0 0.0
2016-Feb-05 18:30N 43°32' W 001°30'0 0.0
2016-Feb-05 17:33N 43°32' W 001°30'0 0.0
2016-Feb-05 16:30N 43°32' W 001°30'0 0.0
2016-Feb-05 15:33N 43°32' W 001°30'0 0.0
2016-Feb-05 14:33N 43°32' W 001°30'0 0.0
2016-Feb-05 13:33N 43°32' W 001°30'0 0.0
2016-Feb-05 12:33N 43°32' W 001°30'0 0.0
2016-Feb-05 11:33N 43°32' W 001°30'0 0.0
2016-Feb-05 10:33N 43°32' W 001°30'0 0.0
2016-Feb-05 09:33N 43°32' W 001°30'0 0.0
2016-Feb-05 08:30N 43°32' W 001°30'0 0.0
2016-Feb-05 07:33N 43°32' W 001°30'0 0.0
2016-Feb-05 06:33N 43°32' W 001°30'0 0.0
2016-Feb-05 05:33N 43°32' W 001°30'0 0.0
2016-Feb-05 04:33N 43°32' W 001°30'0 0.0
2016-Feb-05 03:33N 43°32' W 001°30'0 0.0
2016-Feb-05 02:33N 43°32' W 001°30'0 0.0
2016-Feb-05 01:33N 43°32' W 001°30'0 0.0
2016-Feb-05 00:33N 43°32' W 001°30'0 0.0
2016-Feb-04 23:33N 43°32' W 001°30'0 0.0
2016-Feb-04 22:33N 43°32' W 001°30'0 0.0
2016-Feb-04 21:33N 43°32' W 001°30'0 0.0
2016-Feb-04 20:33N 43°32' W 001°30'0 0.0
2016-Feb-04 19:33N 43°32' W 001°30'0 0.0
2016-Feb-04 18:33N 43°32' W 001°30'0 0.0
2016-Feb-04 17:33N 43°32' W 001°30'0 0.0
2016-Feb-04 16:33N 43°32' W 001°30'0 0.0
2016-Feb-04 15:33N 43°32' W 001°30'0 0.0
2016-Feb-04 14:33N 43°32' W 001°30'3 3.3
2016-Feb-04 13:33N 43°34' W 001°34'0 0.2
2016-Feb-04 12:34N 43°34' W 001°34'0 0.0
2016-Feb-04 11:34N 43°34' W 001°34'0 0.0
2016-Feb-04 10:34N 43°34' W 001°34'0 0.0
2016-Feb-04 09:34N 43°34' W 001°34'5 4.5
2016-Feb-04 08:32N 43°38' W 001°37'300 8.8
2016-Feb-02 22:33N 47°59' W 005°09'7 6.9
2016-Feb-02 21:34N 48°06' W 005°10'6 6.1
2016-Feb-02 20:34N 48°10' W 005°02'6 6.4
2016-Feb-02 19:34N 48°13' W 004°54'7 6.8
2016-Feb-02 18:34N 48°17' W 004°46'8 7.6
2016-Feb-02 17:34N 48°20' W 004°35'6 6.1
2016-Feb-02 16:33N 48°23' W 004°27'  
Track history (hours):
 
Tides and Currents Weather Stations Pressure Air Temp Water Temp Dewpoint Dewpoint Depression Visibility Wind Speed Wind Dir Waves Ship Positions

Wilson Gaeta

Last reported at 2016-Feb-12 15:34 UTC. Time now 2016-Feb-13 08:55 UTC.
Position N 49°25' W 003°56'.

Length 88 m; draft 5.6 m.

Type: Cargo ship. MMSI: 314237000.

Date/timePositionNaut miles runAvg speedWind from/ knotsBaromVisibWave heightAir tempDewpointWater temp
2016-Feb-12 15:34N 49°25' W 003°56'8 7.8
2016-Feb-12 14:34N 49°21' W 004°07'  
2016-Feb-06 09:32N 43°35' W 001°58'1110.9
2016-Feb-06 08:33N 43°33' W 001°43'10 9.7
2016-Feb-06 07:33N 43°32' W 001°30'0 0.0
2016-Feb-06 06:33N 43°32' W 001°30'0 0.0
2016-Feb-06 05:33N 43°32' W 001°30'0 0.0
2016-Feb-06 04:33N 43°32' W 001°30'0 0.0
2016-Feb-06 03:33N 43°32' W 001°30'0 0.0
2016-Feb-06 02:33N 43°32' W 001°30'0 0.0
2016-Feb-06 01:33N 43°32' W 001°30'0 0.0
2016-Feb-06 00:33N 43°32' W 001°30'0 0.0
2016-Feb-05 23:33N 43°32' W 001°30'0 0.0
2016-Feb-05 22:33N 43°32' W 001°30'0 0.0
2016-Feb-05 21:33N 43°32' W 001°30'0 0.0
2016-Feb-05 20:33N 43°32' W 001°30'0 0.0
2016-Feb-05 19:33N 43°32' W 001°30'0 0.0
2016-Feb-05 18:30N 43°32' W 001°30'0 0.0
2016-Feb-05 17:33N 43°32' W 001°30'0 0.0
2016-Feb-05 16:30N 43°32' W 001°30'0 0.0
2016-Feb-05 15:33N 43°32' W 001°30'0 0.0
2016-Feb-05 14:33N 43°32' W 001°30'0 0.0
2016-Feb-05 13:33N 43°32' W 001°30'0 0.0
2016-Feb-05 12:33N 43°32' W 001°30'0 0.0
2016-Feb-05 11:33N 43°32' W 001°30'0 0.0
2016-Feb-05 10:33N 43°32' W 001°30'0 0.0
2016-Feb-05 09:33N 43°32' W 001°30'0 0.0
2016-Feb-05 08:30N 43°32' W 001°30'0 0.0
2016-Feb-05 07:33N 43°32' W 001°30'0 0.0
2016-Feb-05 06:33N 43°32' W 001°30'0 0.0
2016-Feb-05 05:33N 43°32' W 001°30'0 0.0
2016-Feb-05 04:33N 43°32' W 001°30'0 0.0
2016-Feb-05 03:33N 43°32' W 001°30'0 0.0
2016-Feb-05 02:33N 43°32' W 001°30'0 0.0
2016-Feb-05 01:33N 43°32' W 001°30'0 0.0
2016-Feb-05 00:33N 43°32' W 001°30'0 0.0
2016-Feb-04 23:33N 43°32' W 001°30'0 0.0
2016-Feb-04 22:33N 43°32' W 001°30'0 0.0
2016-Feb-04 21:33N 43°32' W 001°30'0 0.0
2016-Feb-04 20:33N 43°32' W 001°30'0 0.0
2016-Feb-04 19:33N 43°32' W 001°30'0 0.0
2016-Feb-04 18:33N 43°32' W 001°30'0 0.0
2016-Feb-04 17:33N 43°32' W 001°30'0 0.0
2016-Feb-04 16:33N 43°32' W 001°30'0 0.0
2016-Feb-04 15:33N 43°32' W 001°30'0 0.0
2016-Feb-04 14:33N 43°32' W 001°30'3 3.3
2016-Feb-04 13:33N 43°34' W 001°34'0 0.2
2016-Feb-04 12:34N 43°34' W 001°34'0 0.0
2016-Feb-04 11:34N 43°34' W 001°34'0 0.0
2016-Feb-04 10:34N 43°34' W 001°34'0 0.0
2016-Feb-04 09:34N 43°34' W 001°34'5 4.5
2016-Feb-04 08:32N 43°38' W 001°37'300 8.8
2016-Feb-02 22:33N 47°59' W 005°09'7 6.9
2016-Feb-02 21:34N 48°06' W 005°10'6 6.1
2016-Feb-02 20:34N 48°10' W 005°02'6 6.4
2016-Feb-02 19:34N 48°13' W 004°54'7 6.8
2016-Feb-02 18:34N 48°17' W 004°46'8 7.6
2016-Feb-02 17:34N 48°20' W 004°35'6 6.1
2016-Feb-02 16:33N 48°23' W 004°27'  

Dump ship's entire track history